sensor_id;sensor_type;location;lat;lon;timestamp;pressure;altitude;pressure_sealevel;temperature;humidity
8280;BME280;8335;42.646;23.380;2023-05-12T00:00:54;143834.25;;;9.08;95.68
8280;BME280;8335;42.646;23.380;2023-05-12T00:03:21;143819.34;;;9.02;96.06
8280;BME280;8335;42.646;23.380;2023-05-12T00:05:48;143806.94;;;8.97;96.50
8280;BME280;8335;42.646;23.380;2023-05-12T00:08:15;143811.88;;;8.99;96.50
8280;BME280;8335;42.646;23.380;2023-05-12T00:10:41;143798.25;;;8.94;96.14
8280;BME280;8335;42.646;23.380;2023-05-12T00:13:08;143800.72;;;8.95;96.89
8280;BME280;8335;42.646;23.380;2023-05-12T00:15:35;143797.03;;;8.93;96.31
8280;BME280;8335;42.646;23.380;2023-05-12T00:18:04;143797.03;;;8.93;96.70
8280;BME280;8335;42.646;23.380;2023-05-12T00:20:31;143794.50;;;8.92;96.90
8280;BME280;8335;42.646;23.380;2023-05-12T00:22:57;143794.50;;;8.92;96.91
8280;BME280;8335;42.646;23.380;2023-05-12T00:25:24;143798.25;;;8.94;97.02
8280;BME280;8335;42.646;23.380;2023-05-12T00:27:51;143785.84;;;8.89;97.37
8280;BME280;8335;42.646;23.380;2023-05-12T00:30:18;143770.94;;;8.82;97.91
8280;BME280;8335;42.646;23.380;2023-05-12T00:32:45;143767.22;;;8.81;98.13
8280;BME280;8335;42.646;23.380;2023-05-12T00:35:13;143757.25;;;8.77;98.39
8280;BME280;8335;42.646;23.380;2023-05-12T00:37:40;143743.59;;;8.71;98.51
8280;BME280;8335;42.646;23.380;2023-05-12T00:40:08;143747.38;;;8.73;99.14
8280;BME280;8335;42.646;23.380;2023-05-12T00:42:35;143744.88;;;8.72;99.13
8280;BME280;8335;42.646;23.380;2023-05-12T00:45:02;143741.13;;;8.70;99.13
8280;BME280;8335;42.646;23.380;2023-05-12T00:47:29;143742.38;;;8.71;99.69
8280;BME280;8335;42.646;23.380;2023-05-12T00:49:56;143730.00;;;8.66;100.00
8280;BME280;8335;42.646;23.380;2023-05-12T00:52:25;143733.69;;;8.67;100.00
8280;BME280;8335;42.646;23.380;2023-05-12T00:54:52;143716.31;;;8.60;99.49
8280;BME280;8335;42.646;23.380;2023-05-12T00:57:19;143702.66;;;8.54;99.85
8280;BME280;8335;42.646;23.380;2023-05-12T00:59:47;143717.56;;;8.61;100.00
8280;BME280;8335;42.646;23.380;2023-05-12T01:02:14;143697.72;;;8.52;100.00
8280;BME280;8335;42.646;23.380;2023-05-12T01:04:41;143701.41;;;8.54;100.00
8280;BME280;8335;42.646;23.380;2023-05-12T01:07:14;143665.44;;;8.39;100.00
8280;BME280;8335;42.646;23.380;2023-05-12T01:09:42;143691.47;;;8.50;100.00
8280;BME280;8335;42.646;23.380;2023-05-12T01:12:09;143687.75;;;8.48;100.00
8280;BME280;8335;42.646;23.380;2023-05-12T01:14:36;143684.06;;;8.47;100.00
8280;BME280;8335;42.646;23.380;2023-05-12T01:17:11;143671.63;;;8.42;100.00
8280;BME280;8335;42.646;23.380;2023-05-12T01:19:40;143669.16;;;8.41;100.00
8280;BME280;8335;42.646;23.380;2023-05-12T01:22:09;143656.72;;;8.36;100.00
8280;BME280;8335;42.646;23.380;2023-05-12T01:24:49;143656.72;;;8.36;100.00
8280;BME280;8335;42.646;23.380;2023-05-12T01:27:19;143624.47;;;8.22;100.00
8280;BME280;8335;42.646;23.380;2023-05-12T01:29:46;143605.84;;;8.15;100.00
8280;BME280;8335;42.646;23.380;2023-05-12T01:32:14;143599.63;;;8.12;100.00
8280;BME280;8335;42.646;23.380;2023-05-12T01:34:42;143564.88;;;7.98;100.00
8280;BME280;8335;42.646;23.380;2023-05-12T01:37:09;143563.66;;;7.97;100.00
8280;BME280;8335;42.646;23.380;2023-05-12T01:39:37;143556.22;;;7.94;100.00
8280;BME280;8335;42.646;23.380;2023-05-12T01:42:04;143557.47;;;7.95;100.00
8280;BME280;8335;42.646;23.380;2023-05-12T01:44:32;143519.03;;;7.79;100.00
8280;BME280;8335;42.646;23.380;2023-05-12T01:46:59;143460.72;;;7.55;100.00
8280;BME280;8335;42.646;23.380;2023-05-12T01:49:27;143466.94;;;7.58;100.00
8280;BME280;8335;42.646;23.380;2023-05-12T01:51:54;143506.59;;;7.74;100.00
8280;BME280;8335;42.646;23.380;2023-05-12T01:54:20;143486.78;;;7.66;100.00
8280;BME280;8335;42.646;23.380;2023-05-12T01:56:47;143468.19;;;7.58;100.00
8280;BME280;8335;42.646;23.380;2023-05-12T01:59:14;143463.19;;;7.56;100.00
8280;BME280;8335;42.646;23.380;2023-05-12T02:01:42;143453.28;;;7.52;100.00
8280;BME280;8335;42.646;23.380;2023-05-12T02:04:09;143450.81;;;7.51;100.00
8280;BME280;8335;42.646;23.380;2023-05-12T02:06:35;143438.41;;;7.46;100.00
8280;BME280;8335;42.646;23.380;2023-05-12T02:09:02;143422.28;;;7.39;100.00
8280;BME280;8335;42.646;23.380;2023-05-12T02:11:29;143408.63;;;7.34;100.00
8280;BME280;8335;42.646;23.380;2023-05-12T02:13:56;143397.50;;;7.29;100.00
8280;BME280;8335;42.646;23.380;2023-05-12T02:16:23;143378.91;;;7.22;100.00
8280;BME280;8335;42.646;23.380;2023-05-12T02:18:51;143359.03;;;7.13;100.00
8280;BME280;8335;42.646;23.380;2023-05-12T02:21:18;143347.91;;;7.09;100.00
8280;BME280;8335;42.646;23.380;2023-05-12T02:23:45;143339.22;;;7.05;100.00
8280;BME280;8335;42.646;23.380;2023-05-12T02:26:12;143339.22;;;7.05;100.00
8280;BME280;8335;42.646;23.380;2023-05-12T02:28:38;143339.22;;;7.05;100.00
8280;BME280;8335;42.646;23.380;2023-05-12T02:31:05;143324.34;;;6.99;100.00
8280;BME280;8335;42.646;23.380;2023-05-12T02:33:32;143337.97;;;7.05;100.00
8280;BME280;8335;42.646;23.380;2023-05-12T02:36:00;143344.19;;;7.07;100.00
8280;BME280;8335;42.646;23.380;2023-05-12T02:38:27;143328.09;;;7.01;100.00
8280;BME280;8335;42.646;23.380;2023-05-12T02:40:54;143344.19;;;7.07;100.00
8280;BME280;8335;42.646;23.380;2023-05-12T02:43:21;143347.91;;;7.09;100.00
8280;BME280;8335;42.646;23.380;2023-05-12T02:45:47;143357.81;;;7.13;100.00
8280;BME280;8335;42.646;23.380;2023-05-12T02:48:14;143349.16;;;7.09;100.00
8280;BME280;8335;42.646;23.380;2023-05-12T02:50:41;143352.84;;;7.11;100.00
8280;BME280;8335;42.646;23.380;2023-05-12T02:53:09;143330.56;;;7.02;100.00
8280;BME280;8335;42.646;23.380;2023-05-12T02:55:36;143342.91;;;7.07;100.00
8280;BME280;8335;42.646;23.380;2023-05-12T02:58:03;143342.91;;;7.07;100.00
8280;BME280;8335;42.646;23.380;2023-05-12T03:00:29;143352.84;;;7.11;100.00
8280;BME280;8335;42.646;23.380;2023-05-12T03:02:56;143340.44;;;7.06;100.00
8280;BME280;8335;42.646;23.380;2023-05-12T03:05:23;143324.34;;;6.99;100.00
8280;BME280;8335;42.646;23.380;2023-05-12T03:07:50;143319.38;;;6.97;100.00
8280;BME280;8335;42.646;23.380;2023-05-12T03:10:18;143345.44;;;7.08;100.00
8280;BME280;8335;42.646;23.380;2023-05-12T03:12:45;143350.38;;;7.10;100.00
8280;BME280;8335;42.646;23.380;2023-05-12T03:15:12;143335.50;;;7.04;100.00
8280;BME280;8335;42.646;23.380;2023-05-12T03:17:38;143337.97;;;7.05;100.00
8280;BME280;8335;42.646;23.380;2023-05-12T03:20:06;143328.09;;;7.01;100.00
8280;BME280;8335;42.646;23.380;2023-05-12T03:22:33;143335.50;;;7.04;100.00
8280;BME280;8335;42.646;23.380;2023-05-12T03:25:00;143304.50;;;6.91;100.00
8280;BME280;8335;42.646;23.380;2023-05-12T03:27:30;143300.78;;;6.89;100.00
8280;BME280;8335;42.646;23.380;2023-05-12T03:29:57;143310.72;;;6.94;100.00
8280;BME280;8335;42.646;23.380;2023-05-12T03:32:25;143303.28;;;6.90;100.00
8280;BME280;8335;42.646;23.380;2023-05-12T03:34:52;143289.63;;;6.85;100.00
8280;BME280;8335;42.646;23.380;2023-05-12T03:37:19;143267.34;;;6.76;100.00
8280;BME280;8335;42.646;23.380;2023-05-12T03:39:46;143284.69;;;6.83;100.00
8280;BME280;8335;42.646;23.380;2023-05-12T03:42:13;143289.63;;;6.85;100.00
8280;BME280;8335;42.646;23.380;2023-05-12T03:44:41;143292.16;;;6.86;100.00
8280;BME280;8335;42.646;23.380;2023-05-12T03:47:08;143313.22;;;6.95;100.00
8280;BME280;8335;42.646;23.380;2023-05-12T03:49:35;143303.28;;;6.90;100.00
8280;BME280;8335;42.646;23.380;2023-05-12T03:52:01;143310.72;;;6.94;100.00
8280;BME280;8335;42.646;23.380;2023-05-12T03:54:28;143319.38;;;6.97;100.00
8280;BME280;8335;42.646;23.380;2023-05-12T03:56:55;143337.97;;;7.05;100.00
8280;BME280;8335;42.646;23.380;2023-05-12T03:59:22;143323.09;;;6.99;100.00
8280;BME280;8335;42.646;23.380;2023-05-12T04:01:50;143316.91;;;6.96;100.00
8280;BME280;8335;42.646;23.380;2023-05-12T04:04:17;143323.09;;;6.99;100.00
8280;BME280;8335;42.646;23.380;2023-05-12T04:06:44;143309.50;;;6.93;100.00
8280;BME280;8335;42.646;23.380;2023-05-12T04:09:11;143304.50;;;6.91;100.00
8280;BME280;8335;42.646;23.380;2023-05-12T04:11:37;143333.03;;;7.03;100.00
8280;BME280;8335;42.646;23.380;2023-05-12T04:14:04;143320.63;;;6.98;100.00
8280;BME280;8335;42.646;23.380;2023-05-12T04:16:31;143336.75;;;7.04;100.00
8280;BME280;8335;42.646;23.380;2023-05-12T04:19:01;143362.78;;;7.15;100.00
8280;BME280;8335;42.646;23.380;2023-05-12T04:21:28;143359.03;;;7.13;100.00
8280;BME280;8335;42.646;23.380;2023-05-12T04:23:55;143366.50;;;7.16;100.00
8280;BME280;8335;42.646;23.380;2023-05-12T04:26:21;143388.81;;;7.26;100.00
8280;BME280;8335;42.646;23.380;2023-05-12T04:28:48;143407.41;;;7.33;100.00
8280;BME280;8335;42.646;23.380;2023-05-12T04:31:15;143391.28;;;7.27;100.00
8280;BME280;8335;42.646;23.380;2023-05-12T04:33:42;143387.56;;;7.25;100.00
8280;BME280;8335;42.646;23.380;2023-05-12T04:36:10;143407.41;;;7.33;100.00
8280;BME280;8335;42.646;23.380;2023-05-12T04:38:38;143288.41;;;6.84;100.00
8280;BME280;8335;42.646;23.380;2023-05-12T04:41:06;143423.50;;;7.40;100.00
8280;BME280;8335;42.646;23.380;2023-05-12T04:43:32;143440.88;;;7.47;100.00
8280;BME280;8335;42.646;23.380;2023-05-12T04:45:59;143450.81;;;7.51;100.00
8280;BME280;8335;42.646;23.380;2023-05-12T04:48:26;143471.88;;;7.60;100.00
8280;BME280;8335;42.646;23.380;2023-05-12T04:50:53;143470.66;;;7.59;100.00
8280;BME280;8335;42.646;23.380;2023-05-12T04:53:21;143452.06;;;7.52;100.00
8280;BME280;8335;42.646;23.380;2023-05-12T04:55:48;143458.22;;;7.54;100.00
8280;BME280;8335;42.646;23.380;2023-05-12T04:58:15;143449.56;;;7.51;100.00
8280;BME280;8335;42.646;23.380;2023-05-12T05:00:42;143460.72;;;7.55;100.00
8280;BME280;8335;42.646;23.380;2023-05-12T05:03:09;143488.00;;;7.66;100.00
8280;BME280;8335;42.646;23.380;2023-05-12T05:05:36;143490.47;;;7.67;100.00
8280;BME280;8335;42.646;23.380;2023-05-12T05:08:03;143511.56;;;7.76;100.00
8280;BME280;8335;42.646;23.380;2023-05-12T05:10:31;143522.72;;;7.81;100.00
8280;BME280;8335;42.646;23.380;2023-05-12T05:12:58;143538.88;;;7.87;100.00
8280;BME280;8335;42.646;23.380;2023-05-12T05:15:25;143525.22;;;7.82;100.00
8280;BME280;8335;42.646;23.380;2023-05-12T05:17:52;143505.38;;;7.73;100.00
8280;BME280;8335;42.646;23.380;2023-05-12T05:20:19;143492.94;;;7.68;100.00
8280;BME280;8335;42.646;23.380;2023-05-12T05:22:46;143497.91;;;7.70;100.00
8280;BME280;8335;42.646;23.380;2023-05-12T05:25:13;143514.03;;;7.77;100.00
8280;BME280;8335;42.646;23.380;2023-05-12T05:27:41;143506.59;;;7.74;100.00
8280;BME280;8335;42.646;23.380;2023-05-12T05:30:09;143522.72;;;7.81;100.00
8280;BME280;8335;42.646;23.380;2023-05-12T05:32:36;143523.97;;;7.81;100.00
8280;BME280;8335;42.646;23.380;2023-05-12T05:35:05;143514.03;;;7.77;100.00
8280;BME280;8335;42.646;23.380;2023-05-12T05:37:32;143530.16;;;7.84;100.00
8280;BME280;8335;42.646;23.380;2023-05-12T05:39:58;143550.00;;;7.92;100.00
8280;BME280;8335;42.646;23.380;2023-05-12T05:42:25;143577.31;;;8.03;100.00
8280;BME280;8335;42.646;23.380;2023-05-12T05:44:53;143576.06;;;8.03;100.00
8280;BME280;8335;42.646;23.380;2023-05-12T05:47:20;143578.53;;;8.04;100.00
8280;BME280;8335;42.646;23.380;2023-05-12T05:49:47;143566.13;;;7.98;100.00
8280;BME280;8335;42.646;23.380;2023-05-12T05:52:14;143578.53;;;8.04;100.00
8280;BME280;8335;42.646;23.380;2023-05-12T05:54:41;143587.22;;;8.07;100.00
8280;BME280;8335;42.646;23.380;2023-05-12T05:57:07;143589.72;;;8.08;100.00
8280;BME280;8335;42.646;23.380;2023-05-12T05:59:34;143594.66;;;8.10;100.00
8280;BME280;8335;42.646;23.380;2023-05-12T06:02:02;143599.63;;;8.12;100.00
8280;BME280;8335;42.646;23.380;2023-05-12T06:04:29;143598.38;;;8.12;100.00
8280;BME280;8335;42.646;23.380;2023-05-12T06:06:56;143567.38;;;7.99;100.00
8280;BME280;8335;42.646;23.380;2023-05-12T06:09:22;143559.94;;;7.96;100.00
8280;BME280;8335;42.646;23.380;2023-05-12T06:11:49;143563.66;;;7.97;100.00
8280;BME280;8335;42.646;23.380;2023-05-12T06:14:16;143592.19;;;8.09;100.00
8280;BME280;8335;42.646;23.380;2023-05-12T06:16:43;143609.56;;;8.16;100.00
8280;BME280;8335;42.646;23.380;2023-05-12T06:19:11;143605.84;;;8.15;100.00
8280;BME280;8335;42.646;23.380;2023-05-12T06:21:38;143626.94;;;8.23;100.00
8280;BME280;8335;42.646;23.380;2023-05-12T06:24:05;143654.22;;;8.35;100.00
8280;BME280;8335;42.646;23.380;2023-05-12T06:26:31;143689.00;;;8.49;100.00
8280;BME280;8335;42.646;23.380;2023-05-12T06:28:58;143712.59;;;8.59;100.00
8280;BME280;8335;42.646;23.380;2023-05-12T06:31:25;143736.16;;;8.68;100.00
8280;BME280;8335;42.646;23.380;2023-05-12T06:33:52;143731.22;;;8.66;100.00
8280;BME280;8335;42.646;23.380;2023-05-12T06:36:20;143738.66;;;8.69;100.00
8280;BME280;8335;42.646;23.380;2023-05-12T06:38:47;143767.22;;;8.81;100.00
8280;BME280;8335;42.646;23.380;2023-05-12T06:41:15;143774.63;;;8.84;100.00
8280;BME280;8335;42.646;23.380;2023-05-12T06:43:41;143775.88;;;8.85;100.00
8280;BME280;8335;42.646;23.380;2023-05-12T06:46:09;143782.13;;;8.87;100.00
8280;BME280;8335;42.646;23.380;2023-05-12T06:48:35;143806.94;;;8.97;100.00
8280;BME280;8335;42.646;23.380;2023-05-12T06:51:02;143811.88;;;8.99;100.00
8280;BME280;8335;42.646;23.380;2023-05-12T06:53:30;143792.03;;;8.91;100.00
8280;BME280;8335;42.646;23.380;2023-05-12T06:55:58;143787.06;;;8.89;100.00
8280;BME280;8335;42.646;23.380;2023-05-12T06:58:24;143788.31;;;8.90;100.00
8280;BME280;8335;42.646;23.380;2023-05-12T07:00:51;143768.47;;;8.81;100.00
8280;BME280;8335;42.646;23.380;2023-05-12T07:03:18;143737.41;;;8.69;100.00
8280;BME280;8335;42.646;23.380;2023-05-12T07:05:45;143754.78;;;8.76;100.00
8280;BME280;8335;42.646;23.380;2023-05-12T07:08:11;143764.75;;;8.80;100.00
8280;BME280;8335;42.646;23.380;2023-05-12T07:10:40;143774.63;;;8.84;100.00
8280;BME280;8335;42.646;23.380;2023-05-12T07:13:06;143787.06;;;8.89;100.00
8280;BME280;8335;42.646;23.380;2023-05-12T07:15:33;143767.22;;;8.81;100.00
8280;BME280;8335;42.646;23.380;2023-05-12T07:18:00;143793.25;;;8.92;100.00
8280;BME280;8335;42.646;23.380;2023-05-12T07:20:27;143814.41;;;9.00;100.00
8280;BME280;8335;42.646;23.380;2023-05-12T07:22:54;143825.53;;;9.05;100.00
8280;BME280;8335;42.646;23.380;2023-05-12T07:25:21;143805.69;;;8.97;100.00
8280;BME280;8335;42.646;23.380;2023-05-12T07:27:49;143813.13;;;9.00;100.00
8280;BME280;8335;42.646;23.380;2023-05-12T07:30:16;143789.53;;;8.90;100.00
8280;BME280;8335;42.646;23.380;2023-05-12T07:32:42;143813.13;;;9.00;100.00
8280;BME280;8335;42.646;23.380;2023-05-12T07:35:09;143813.13;;;9.00;100.00
8280;BME280;8335;42.646;23.380;2023-05-12T07:37:36;143839.22;;;9.10;100.00
8280;BME280;8335;42.646;23.380;2023-05-12T07:40:04;143834.25;;;9.08;100.00
8280;BME280;8335;42.646;23.380;2023-05-12T07:42:31;143871.50;;;9.24;100.00
8280;BME280;8335;42.646;23.380;2023-05-12T07:44:59;143908.75;;;9.39;100.00
8280;BME280;8335;42.646;23.380;2023-05-12T07:47:26;143960.91;;;9.60;100.00
8280;BME280;8335;42.646;23.380;2023-05-12T07:49:53;143990.75;;;9.73;100.00
8280;BME280;8335;42.646;23.380;2023-05-12T07:52:20;143990.75;;;9.73;100.00
8280;BME280;8335;42.646;23.380;2023-05-12T07:54:48;144013.09;;;9.82;100.00
8280;BME280;8335;42.646;23.380;2023-05-12T07:57:15;144018.06;;;9.84;100.00
8280;BME280;8335;42.646;23.380;2023-05-12T07:59:42;144041.69;;;9.93;100.00
8280;BME280;8335;42.646;23.380;2023-05-12T08:02:10;144092.63;;;10.14;100.00
8280;BME280;8335;42.646;23.380;2023-05-12T08:04:37;144138.63;;;10.33;100.00
8280;BME280;8335;42.646;23.380;2023-05-12T08:07:03;144152.31;;;10.39;99.19
8280;BME280;8335;42.646;23.380;2023-05-12T08:09:30;144175.91;;;10.48;98.83
8280;BME280;8335;42.646;23.380;2023-05-12T08:11:57;144220.69;;;10.67;97.58
8280;BME280;8335;42.646;23.380;2023-05-12T08:14:24;144269.19;;;10.87;97.09
8280;BME280;8335;42.646;23.380;2023-05-12T08:16:51;144286.59;;;10.94;95.50
8280;BME280;8335;42.646;23.380;2023-05-12T08:19:19;144233.13;;;10.72;96.02
8280;BME280;8335;42.646;23.380;2023-05-12T08:21:46;144235.63;;;10.73;95.03
8280;BME280;8335;42.646;23.380;2023-05-12T08:24:13;144211.97;;;10.63;95.72
8280;BME280;8335;42.646;23.380;2023-05-12T08:26:39;144235.63;;;10.73;96.58
8280;BME280;8335;42.646;23.380;2023-05-12T08:29:06;144260.47;;;10.83;95.13
8280;BME280;8335;42.646;23.380;2023-05-12T08:31:34;144299.00;;;10.99;95.44
8280;BME280;8335;42.646;23.380;2023-05-12T08:34:01;144304.00;;;11.01;94.36
8280;BME280;8335;42.646;23.380;2023-05-12T08:36:30;144321.41;;;11.08;93.17
8280;BME280;8335;42.646;23.380;2023-05-12T08:38:57;144372.41;;;11.29;93.24
8280;BME280;8335;42.646;23.380;2023-05-12T08:41:30;144369.88;;;11.28;93.66
8280;BME280;8335;42.646;23.380;2023-05-12T08:44:02;144437.06;;;11.55;92.53
8280;BME280;8335;42.646;23.380;2023-05-12T08:46:31;144398.50;;;11.40;91.17
8280;BME280;8335;42.646;23.380;2023-05-12T08:49:00;144443.31;;;11.58;90.18
8280;BME280;8335;42.646;23.380;2023-05-12T08:51:29;144460.72;;;11.65;89.09
8280;BME280;8335;42.646;23.380;2023-05-12T08:53:57;144471.91;;;11.70;88.98
8280;BME280;8335;42.646;23.380;2023-05-12T08:56:24;144454.47;;;11.63;89.06
8280;BME280;8335;42.646;23.380;2023-05-12T08:58:51;144475.63;;;11.71;89.38
8280;BME280;8335;42.646;23.380;2023-05-12T09:01:19;144519.25;;;11.89;88.56
8280;BME280;8335;42.646;23.380;2023-05-12T09:03:46;144511.81;;;11.86;89.29
8280;BME280;8335;42.646;23.380;2023-05-12T09:06:13;144521.72;;;11.90;88.65
8280;BME280;8335;42.646;23.380;2023-05-12T09:08:41;144515.53;;;11.88;89.54
8280;BME280;8335;42.646;23.380;2023-05-12T09:11:10;144495.56;;;11.79;89.01
8280;BME280;8335;42.646;23.380;2023-05-12T09:13:42;144524.22;;;11.91;90.10
8280;BME280;8335;42.646;23.380;2023-05-12T09:16:14;144508.03;;;11.84;89.35
8280;BME280;8335;42.646;23.380;2023-05-12T09:18:47;144564.06;;;12.07;87.44
8280;BME280;8335;42.646;23.380;2023-05-12T09:21:15;144575.25;;;12.12;87.22
8280;BME280;8335;42.646;23.380;2023-05-12T09:23:53;144575.25;;;12.12;88.05
8280;BME280;8335;42.646;23.380;2023-05-12T09:26:20;144605.13;;;12.24;87.24
8280;BME280;8335;42.646;23.380;2023-05-12T09:28:47;144630.00;;;12.34;86.73
8280;BME280;8335;42.646;23.380;2023-05-12T09:31:16;144672.38;;;12.52;84.57
8280;BME280;8335;42.646;23.380;2023-05-12T09:33:43;144725.91;;;12.74;84.21
8280;BME280;8335;42.646;23.380;2023-05-12T09:36:11;144649.91;;;12.43;83.63
8280;BME280;8335;42.646;23.380;2023-05-12T09:38:41;144759.53;;;12.87;82.43
8280;BME280;8335;42.646;23.380;2023-05-12T09:41:10;144776.97;;;12.94;82.60
8280;BME280;8335;42.646;23.380;2023-05-12T09:43:36;144796.88;;;13.03;81.93
8280;BME280;8335;42.646;23.380;2023-05-12T09:46:10;144800.59;;;13.04;80.95
8280;BME280;8335;42.646;23.380;2023-05-12T09:48:37;144714.69;;;12.69;81.33
8280;BME280;8335;42.646;23.380;2023-05-12T09:51:04;144862.97;;;13.30;79.44
8280;BME280;8335;42.646;23.380;2023-05-12T09:53:40;144900.34;;;13.45;78.75
8280;BME280;8335;42.646;23.380;2023-05-12T09:56:10;144933.97;;;13.59;77.75
8280;BME280;8335;42.646;23.380;2023-05-12T09:58:40;144926.47;;;13.56;77.45
8280;BME280;8335;42.646;23.380;2023-05-12T10:01:08;144932.75;;;13.58;77.32
8280;BME280;8335;42.646;23.380;2023-05-12T10:03:37;144988.81;;;13.81;75.53
8280;BME280;8335;42.646;23.380;2023-05-12T10:06:06;144996.25;;;13.84;75.59
8280;BME280;8335;42.646;23.380;2023-05-12T10:08:37;145044.88;;;14.04;75.01
8280;BME280;8335;42.646;23.380;2023-05-12T10:11:04;145120.91;;;14.35;73.80
8280;BME280;8335;42.646;23.380;2023-05-12T10:13:32;145147.19;;;14.46;72.40
8280;BME280;8335;42.646;23.380;2023-05-12T10:16:00;145244.41;;;14.85;71.64
8280;BME280;8335;42.646;23.380;2023-05-12T10:18:28;145280.63;;;15.00;69.89
8280;BME280;8335;42.646;23.380;2023-05-12T10:20:57;145370.47;;;15.37;70.54
8280;BME280;8335;42.646;23.380;2023-05-12T10:23:25;145470.31;;;15.78;67.80
8280;BME280;8335;42.646;23.380;2023-05-12T10:25:53;145562.72;;;16.15;66.34
8280;BME280;8335;42.646;23.380;2023-05-12T10:28:23;145633.91;;;16.44;64.18
8280;BME280;8335;42.646;23.380;2023-05-12T10:30:52;145595.16;;;16.29;61.14
8280;BME280;8335;42.646;23.380;2023-05-12T10:33:19;145562.72;;;16.15;60.70
8280;BME280;8335;42.646;23.380;2023-05-12T10:35:46;145552.72;;;16.11;61.39
8280;BME280;8335;42.646;23.380;2023-05-12T10:38:14;145535.25;;;16.04;60.63
8280;BME280;8335;42.646;23.380;2023-05-12T10:40:52;145500.28;;;15.90;62.06
8280;BME280;8335;42.646;23.380;2023-05-12T10:43:22;145464.09;;;15.75;62.96
8280;BME280;8335;42.646;23.380;2023-05-12T10:46:07;145426.63;;;15.60;63.42
8280;BME280;8335;42.646;23.380;2023-05-12T10:48:35;145439.16;;;15.65;64.49
8280;BME280;8335;42.646;23.380;2023-05-12T10:51:07;145462.84;;;15.75;62.62
8280;BME280;8335;42.646;23.380;2023-05-12T10:53:37;145450.34;;;15.69;62.33
8280;BME280;8335;42.646;23.380;2023-05-12T10:56:05;145462.84;;;15.75;62.42
8280;BME280;8335;42.646;23.380;2023-05-12T10:58:32;145425.38;;;15.59;62.94
8280;BME280;8335;42.646;23.380;2023-05-12T11:01:03;145355.50;;;15.31;63.04
8280;BME280;8335;42.646;23.380;2023-05-12T11:03:32;145354.25;;;15.30;62.43
8280;BME280;8335;42.646;23.380;2023-05-12T11:06:02;145356.72;;;15.31;63.22
8280;BME280;8335;42.646;23.380;2023-05-12T11:08:30;145404.16;;;15.51;63.73
8280;BME280;8335;42.646;23.380;2023-05-12T11:10:59;145420.38;;;15.57;62.49
8280;BME280;8335;42.646;23.380;2023-05-12T11:13:27;145395.41;;;15.47;62.59
8280;BME280;8335;42.646;23.380;2023-05-12T11:15:55;145409.13;;;15.53;63.31
8280;BME280;8335;42.646;23.380;2023-05-12T11:18:22;145424.13;;;15.59;62.07
8280;BME280;8335;42.646;23.380;2023-05-12T11:20:50;145401.63;;;15.50;62.60
8280;BME280;8335;42.646;23.380;2023-05-12T11:23:25;145427.84;;;15.60;62.62
8280;BME280;8335;42.646;23.380;2023-05-12T11:25:53;145440.41;;;15.65;61.65
8280;BME280;8335;42.646;23.380;2023-05-12T11:28:20;145421.63;;;15.58;60.56
8280;BME280;8335;42.646;23.380;2023-05-12T11:30:50;145387.94;;;15.44;60.44
8280;BME280;8335;42.646;23.380;2023-05-12T11:33:20;145275.63;;;14.98;62.26
8280;BME280;8335;42.646;23.380;2023-05-12T11:35:47;145280.63;;;15.00;62.20
8280;BME280;8335;42.646;23.380;2023-05-12T11:38:16;145260.63;;;14.92;61.28
8280;BME280;8335;42.646;23.380;2023-05-12T11:40:44;145239.44;;;14.83;61.30
8280;BME280;8335;42.646;23.380;2023-05-12T11:43:11;145204.53;;;14.69;62.95
8280;BME280;8335;42.646;23.380;2023-05-12T11:45:39;145264.41;;;14.94;62.87
8280;BME280;8335;42.646;23.380;2023-05-12T11:48:06;145263.19;;;14.93;62.87
8280;BME280;8335;42.646;23.380;2023-05-12T11:50:36;145215.75;;;14.74;61.47
8280;BME280;8335;42.646;23.380;2023-05-12T11:53:04;145180.84;;;14.59;62.38
8280;BME280;8335;42.646;23.380;2023-05-12T11:55:32;145125.94;;;14.37;64.22
8280;BME280;8335;42.646;23.380;2023-05-12T11:58:00;145071.09;;;14.15;65.97
8280;BME280;8335;42.646;23.380;2023-05-12T12:00:32;145106.00;;;14.29;65.18
8280;BME280;8335;42.646;23.380;2023-05-12T12:03:08;145092.28;;;14.23;65.84
8280;BME280;8335;42.646;23.380;2023-05-12T12:05:36;145097.25;;;14.25;65.48
8280;BME280;8335;42.646;23.380;2023-05-12T12:08:04;145122.16;;;14.36;66.40
8280;BME280;8335;42.646;23.380;2023-05-12T12:10:33;145162.16;;;14.52;65.44
8280;BME280;8335;42.646;23.380;2023-05-12T12:13:00;145104.69;;;14.28;65.25
8280;BME280;8335;42.646;23.380;2023-05-12T12:15:27;145124.69;;;14.37;64.99
8280;BME280;8335;42.646;23.380;2023-05-12T12:17:54;145102.22;;;14.27;65.71
8280;BME280;8335;42.646;23.380;2023-05-12T12:20:21;145129.66;;;14.39;65.08
8280;BME280;8335;42.646;23.380;2023-05-12T12:22:49;145127.19;;;14.38;65.27
8280;BME280;8335;42.646;23.380;2023-05-12T12:25:17;145112.22;;;14.31;65.31
8280;BME280;8335;42.646;23.380;2023-05-12T12:27:45;145129.66;;;14.39;65.15
8280;BME280;8335;42.646;23.380;2023-05-12T12:30:13;145114.69;;;14.32;64.94
8280;BME280;8335;42.646;23.380;2023-05-12T12:32:40;145110.97;;;14.31;65.47
8280;BME280;8335;42.646;23.380;2023-05-12T12:35:07;145127.19;;;14.38;64.67
8280;BME280;8335;42.646;23.380;2023-05-12T12:37:34;145123.44;;;14.36;64.62
8280;BME280;8335;42.646;23.380;2023-05-12T12:40:00;145145.88;;;14.45;64.66
8280;BME280;8335;42.646;23.380;2023-05-12T12:42:32;145137.13;;;14.42;64.39
8280;BME280;8335;42.646;23.380;2023-05-12T12:45:02;145096.00;;;14.25;64.37
8280;BME280;8335;42.646;23.380;2023-05-12T12:47:28;145061.09;;;14.11;65.05
8280;BME280;8335;42.646;23.380;2023-05-12T12:49:55;145089.78;;;14.22;64.48
8280;BME280;8335;42.646;23.380;2023-05-12T12:52:23;145073.56;;;14.16;63.97
8280;BME280;8335;42.646;23.380;2023-05-12T12:54:49;145023.72;;;13.95;65.00
8280;BME280;8335;42.646;23.380;2023-05-12T12:57:16;145036.19;;;14.00;65.38
8280;BME280;8335;42.646;23.380;2023-05-12T12:59:44;145038.66;;;14.01;63.92
8280;BME280;8335;42.646;23.380;2023-05-12T13:02:12;145022.47;;;13.95;64.51